createdAt,value
2023-04-28T00:04:52.905Z,16.89453125
2023-04-28T00:14:52.538Z,17.29736328125
2023-04-28T00:24:52.523Z,17.8955078125
2023-04-28T00:34:52.474Z,18.39599609375
2023-04-28T00:44:52.421Z,19.10400390625
2023-04-28T00:54:52.304Z,18.29833984375
2023-04-28T01:04:52.274Z,18.701171875
2023-04-28T01:14:52.145Z,19.20166015625
2023-04-28T01:24:52.116Z,19.6044921875
2023-04-28T01:34:51.966Z,19.7021484375
2023-04-28T01:44:51.943Z,19.39697265625
2023-04-28T01:54:51.958Z,18.994140625
2023-04-28T02:04:51.983Z,18.994140625
2023-04-28T02:14:51.713Z,19.7021484375
2023-04-28T02:24:51.578Z,18.39599609375
2023-04-28T02:34:51.696Z,18.00537109375
2023-04-28T02:44:51.442Z,17.8955078125
2023-04-28T02:54:51.362Z,16.796875
2023-04-28T03:04:51.483Z,16.50390625
2023-04-28T03:14:51.277Z,16.00341796875
2023-04-28T03:24:51.197Z,15.7958984375
2023-04-28T03:34:51.111Z,15.4052734375
2023-04-28T03:44:51.058Z,15.29541015625
2023-04-28T03:54:50.924Z,15.00244140625
2023-04-28T04:04:51.228Z,14.794921875
2023-04-28T04:14:50.990Z,14.404296875
2023-04-28T04:24:50.726Z,14.19677734375
2023-04-28T05:14:50.544Z,13.3056640625
2023-04-28T05:24:50.325Z,13.00048828125
2023-04-28T05:34:50.298Z,13.19580078125
2023-04-28T05:44:50.186Z,12.90283203125
2023-04-28T05:54:50.182Z,12.80517578125
2023-04-28T06:04:50.535Z,12.6953125
2023-04-28T06:14:49.961Z,12.5
2023-04-28T06:24:49.883Z,12.40234375
2023-04-28T06:34:49.934Z,12.200927734375
2023-04-28T06:44:49.868Z,12.09716796875
2023-04-28T06:54:49.667Z,12.09716796875
2023-04-28T07:04:49.742Z,12.09716796875
2023-04-28T07:14:49.615Z,12.09716796875
2023-04-28T07:24:49.509Z,12.09716796875
2023-04-28T07:34:49.435Z,11.90185546875
2023-04-28T07:44:49.491Z,11.798095703125
2023-04-28T07:54:49.322Z,11.798095703125
2023-04-28T08:04:49.372Z,11.700439453125
2023-04-28T08:14:49.256Z,11.700439453125
2023-04-28T08:24:49.058Z,11.602783203125
2023-04-28T08:34:49.050Z,11.602783203125
2023-04-28T08:44:48.967Z,11.4990234375
2023-04-28T08:54:49.465Z,11.4013671875
2023-04-28T09:04:49.122Z,11.4013671875
2023-04-28T09:14:49.361Z,11.4013671875
2023-04-28T09:24:48.734Z,11.4013671875
2023-04-28T09:34:48.586Z,11.199951171875
2023-04-28T09:43:27.453Z,11.199951171875
2023-04-28T09:53:26.885Z,11.199951171875
2023-04-28T10:03:29.407Z,11.102294921875
2023-04-28T10:13:26.821Z,11.102294921875
2023-04-28T10:23:26.751Z,11.199951171875
2023-04-28T10:33:27.182Z,11.199951171875
2023-04-28T10:43:26.934Z,11.199951171875
2023-04-28T10:53:26.741Z,10.99853515625
2023-04-28T11:03:26.737Z,11.102294921875
2023-04-28T11:13:27.368Z,11.199951171875
2023-04-28T11:23:26.590Z,10.99853515625
2023-04-28T11:33:26.212Z,11.102294921875
2023-04-28T11:43:33.741Z,10.99853515625
2023-04-28T11:53:26.069Z,10.99853515625
2023-04-28T12:03:26.206Z,11.199951171875
2023-04-28T12:13:25.955Z,11.4013671875
2023-04-28T12:23:25.830Z,11.199951171875
2023-04-28T12:33:25.777Z,11.102294921875
2023-04-28T12:43:25.684Z,11.102294921875
2023-04-28T12:53:25.612Z,10.90087890625
2023-04-28T13:03:25.831Z,10.797119140625
2023-04-28T13:13:25.634Z,10.90087890625
2023-04-28T13:23:25.440Z,10.90087890625
2023-04-28T13:33:25.397Z,10.99853515625
2023-04-28T13:43:25.336Z,10.90087890625
2023-04-28T13:53:25.197Z,10.601806640625
2023-04-28T14:03:25.281Z,10.601806640625
2023-04-28T14:13:25.210Z,10.699462890625
2023-04-28T14:23:25.058Z,10.498046875
2023-04-28T14:33:24.926Z,10.498046875
2023-04-28T14:43:24.983Z,10.498046875
2023-04-28T14:53:24.942Z,10.601806640625
2023-04-28T15:03:24.892Z,10.699462890625
2023-04-28T15:13:24.715Z,10.601806640625
2023-04-28T15:23:24.666Z,10.498046875
2023-04-28T15:33:24.667Z,10.400390625
2023-04-28T15:43:24.594Z,10.302734375
2023-04-28T15:53:24.469Z,10.198974609375
2023-04-28T16:03:24.589Z,10.302734375
2023-04-28T16:13:24.399Z,10.101318359375
2023-04-28T16:23:24.277Z,10.101318359375
2023-04-28T16:33:24.158Z,9.99755859375
2023-04-28T16:43:24.181Z,10.198974609375
2023-04-28T16:53:23.990Z,10.198974609375
2023-04-28T17:03:23.993Z,10.101318359375
2023-04-28T17:13:23.864Z,10.302734375
2023-04-28T17:23:23.812Z,10.198974609375
2023-04-28T17:33:23.671Z,10.302734375
2023-04-28T17:43:23.647Z,10.400390625
2023-04-28T17:53:23.571Z,10.198974609375
2023-04-28T18:03:23.636Z,9.99755859375
2023-04-28T18:13:23.409Z,10.498046875
2023-04-28T18:23:23.390Z,10.601806640625
2023-04-28T18:33:23.685Z,10.601806640625
2023-04-28T18:43:23.158Z,10.601806640625
2023-04-28T18:53:23.093Z,10.90087890625
2023-04-28T19:03:23.275Z,11.102294921875
2023-04-28T19:13:22.986Z,11.102294921875
2023-04-28T19:23:22.934Z,11.102294921875
2023-04-28T19:33:23.881Z,11.4013671875
2023-04-28T19:43:22.867Z,11.4990234375
2023-04-28T19:53:22.720Z,11.602783203125
2023-04-28T20:03:22.763Z,11.99951171875
2023-04-28T20:13:22.531Z,12.09716796875
2023-04-28T20:23:22.591Z,12.59765625
2023-04-28T20:33:22.371Z,12.298583984375
2023-04-28T20:43:22.462Z,12.5
2023-04-28T20:53:22.339Z,12.5
2023-04-28T21:03:22.376Z,12.5
2023-04-28T21:13:22.080Z,12.6953125
2023-04-28T21:23:22.323Z,12.6953125
2023-04-28T21:33:21.961Z,13.09814453125
2023-04-28T21:43:21.962Z,13.6962890625
2023-04-28T21:53:21.888Z,14.29443359375
2023-04-28T22:03:22.080Z,14.599609375
2023-04-28T22:13:21.717Z,14.794921875
2023-04-28T22:23:21.718Z,15.4052734375
2023-04-28T22:33:21.510Z,16.00341796875
2023-04-28T22:43:21.523Z,16.19873046875
2023-04-28T22:53:21.555Z,16.6015625
2023-04-28T23:03:21.570Z,17.19970703125
2023-04-28T23:13:21.202Z,17.19970703125
2023-04-28T23:23:21.288Z,17.6025390625
2023-04-28T23:33:21.055Z,18.00537109375
2023-04-28T23:43:21.005Z,18.39599609375
2023-04-28T23:53:20.912Z,18.896484375
